createdAt,value
2022-12-03T00:00:28.045Z,54.20
2022-12-03T00:03:16.301Z,56.80
2022-12-03T00:05:48.893Z,52.60
2022-12-03T00:08:17.571Z,66.70
2022-12-03T00:10:45.867Z,55.80
2022-12-03T00:13:14.201Z,47.60
2022-12-03T00:15:42.384Z,49.70
2022-12-03T00:18:10.708Z,52.00
2022-12-03T00:20:38.794Z,46.10
2022-12-03T00:23:06.783Z,48.10
2022-12-03T00:25:35.054Z,44.50
2022-12-03T00:28:03.171Z,42.90
2022-12-03T00:30:31.319Z,41.00
2022-12-03T00:32:59.347Z,41.30
2022-12-03T00:35:27.566Z,40.50
2022-12-03T00:37:56.069Z,41.60
2022-12-03T00:40:24.125Z,38.60
2022-12-03T00:42:52.287Z,36.20
2022-12-03T00:45:20.315Z,38.70
2022-12-03T00:47:48.362Z,52.00
2022-12-03T00:50:16.736Z,41.60
2022-12-03T00:52:44.942Z,43.80
2022-12-03T00:55:13.008Z,40.40
2022-12-03T00:57:41.024Z,36.30
2022-12-03T01:00:11.067Z,44.80
2022-12-03T01:02:39.814Z,37.10
2022-12-03T01:05:08.603Z,39.80
2022-12-03T01:07:36.872Z,47.70
2022-12-03T01:10:05.667Z,43.30
2022-12-03T01:12:33.770Z,43.50
2022-12-03T01:15:02.149Z,48.30
2022-12-03T01:17:30.139Z,49.80
2022-12-03T01:19:59.163Z,53.50
2022-12-03T01:22:28.023Z,65.50
2022-12-03T01:24:56.134Z,50.80
2022-12-03T01:27:24.305Z,47.80
2022-12-03T01:29:52.512Z,51.90
2022-12-03T01:32:20.601Z,51.80
2022-12-03T01:34:54.233Z,47.20
2022-12-03T01:37:25.776Z,55.90
2022-12-03T01:39:54.434Z,58.60
2022-12-03T01:42:41.749Z,58.10
2022-12-03T01:45:21.407Z,45.70
2022-12-03T01:47:49.627Z,51.70
2022-12-03T01:50:30.399Z,51.80
2022-12-03T01:53:01.655Z,47.80
2022-12-03T01:55:30.072Z,42.00
2022-12-03T01:58:00.951Z,48.10
2022-12-03T02:00:30.295Z,47.60
2022-12-03T02:03:07.773Z,43.70
2022-12-03T02:05:37.101Z,41.90
2022-12-03T02:08:31.299Z,44.50
2022-12-03T02:11:06.634Z,38.90
2022-12-03T02:13:35.327Z,40.00
2022-12-03T02:16:04.538Z,42.00
2022-12-03T02:18:32.749Z,41.50
2022-12-03T02:21:12.369Z,39.10
2022-12-03T02:23:40.409Z,39.80
2022-12-03T02:26:08.530Z,38.00
2022-12-03T02:28:38.262Z,34.20
2022-12-03T02:31:07.332Z,35.90
2022-12-03T02:33:35.676Z,35.40
2022-12-03T02:36:04.353Z,37.60
2022-12-03T02:38:35.214Z,39.00
2022-12-03T02:41:07.500Z,37.40
2022-12-03T02:43:36.053Z,42.80
2022-12-03T02:46:07.575Z,42.30
2022-12-03T02:48:41.011Z,42.20
2022-12-03T02:51:11.067Z,43.20
2022-12-03T02:53:44.582Z,46.30
2022-12-03T02:56:16.588Z,50.30
2022-12-03T02:58:47.115Z,40.50
2022-12-03T03:03:48.888Z,39.60
2022-12-03T03:06:19.730Z,33.90
2022-12-03T03:08:48.504Z,41.20
2022-12-03T03:11:16.750Z,41.10
2022-12-03T03:13:44.917Z,36.40
2022-12-03T03:16:13.143Z,42.80
2022-12-03T03:18:42.028Z,45.80
2022-12-03T03:21:10.429Z,38.50
2022-12-03T03:23:38.678Z,39.10
2022-12-03T03:26:10.002Z,39.50
2022-12-03T03:28:46.152Z,45.10
2022-12-03T03:31:18.269Z,38.90
2022-12-03T03:33:48.550Z,32.70
2022-12-03T03:36:17.135Z,38.00
2022-12-03T03:38:45.355Z,38.20
2022-12-03T03:41:14.609Z,36.10
2022-12-03T03:43:44.468Z,39.40
2022-12-03T03:46:12.912Z,39.50
2022-12-03T03:48:42.648Z,39.00
2022-12-03T03:51:12.325Z,40.60
2022-12-03T03:53:43.214Z,39.00
2022-12-03T03:56:13.447Z,38.80
2022-12-03T03:58:41.611Z,32.40
2022-12-03T04:01:12.628Z,38.70
2022-12-03T04:03:41.201Z,39.70
2022-12-03T04:06:09.974Z,35.50
2022-12-03T04:08:38.087Z,33.80
2022-12-03T04:11:25.375Z,43.90
2022-12-03T04:13:53.528Z,36.70
2022-12-03T04:16:21.675Z,39.30
2022-12-03T04:18:49.776Z,43.00
2022-12-03T04:21:38.734Z,36.60
2022-12-03T04:24:09.031Z,52.30
2022-12-03T04:26:56.041Z,50.00
2022-12-03T04:29:24.312Z,40.60
2022-12-03T04:32:11.115Z,38.30
2022-12-03T04:34:58.253Z,38.10
2022-12-03T04:37:26.330Z,36.80
2022-12-03T04:39:54.651Z,37.60
2022-12-03T04:42:22.971Z,39.90
2022-12-03T04:44:51.101Z,38.80
2022-12-03T04:47:22.008Z,40.50
2022-12-03T04:49:51.665Z,46.40
2022-12-03T04:52:20.861Z,50.20
2022-12-03T04:54:48.979Z,42.50
2022-12-03T04:57:17.384Z,37.60
2022-12-03T04:59:45.473Z,44.00
2022-12-03T05:02:13.540Z,39.60
2022-12-03T05:04:42.236Z,36.10
2022-12-03T05:07:11.818Z,41.70
2022-12-03T05:09:39.923Z,39.40
2022-12-03T05:12:08.134Z,32.90
2022-12-03T05:14:36.650Z,37.30
2022-12-03T05:17:04.787Z,37.90
2022-12-03T05:19:51.579Z,35.50
2022-12-03T05:22:19.630Z,33.60
2022-12-03T05:24:47.742Z,34.90
2022-12-03T05:27:20.207Z,32.00
2022-12-03T05:29:52.597Z,28.30
2022-12-03T05:32:20.886Z,26.50
2022-12-03T05:34:48.963Z,33.80
2022-12-03T05:37:17.082Z,26.20
2022-12-03T05:39:45.150Z,31.00
2022-12-03T05:42:31.952Z,31.00
2022-12-03T05:45:00.222Z,27.30
2022-12-03T05:47:28.307Z,28.80
2022-12-03T05:49:56.352Z,29.20
2022-12-03T05:52:24.385Z,30.50
2022-12-03T05:54:52.782Z,31.50
2022-12-03T05:57:21.174Z,26.70
2022-12-03T05:59:49.372Z,26.80
2022-12-03T06:02:17.433Z,45.10
2022-12-03T06:04:45.781Z,46.10
2022-12-03T06:07:14.409Z,45.90
2022-12-03T06:09:42.737Z,58.90
2022-12-03T06:12:10.738Z,63.70
2022-12-03T06:14:38.839Z,88.00
2022-12-03T06:17:07.379Z,70.10
2022-12-03T06:19:35.679Z,61.40
2022-12-03T06:22:03.988Z,57.10
2022-12-03T06:24:32.308Z,50.50
2022-12-03T06:27:00.303Z,40.40
2022-12-03T06:29:28.493Z,48.60
2022-12-03T06:31:56.546Z,38.00
2022-12-03T06:34:24.634Z,38.50
2022-12-03T06:36:52.661Z,35.50
2022-12-03T06:39:22.693Z,47.20
2022-12-03T06:41:50.858Z,42.10
2022-12-03T06:44:19.088Z,53.20
2022-12-03T06:46:48.125Z,39.90
2022-12-03T06:49:16.395Z,35.50
2022-12-03T06:51:44.484Z,37.10
2022-12-03T06:54:12.533Z,36.50
2022-12-03T06:56:45.068Z,30.90
2022-12-03T06:59:14.060Z,32.50
2022-12-03T07:01:42.999Z,26.40
2022-12-03T07:04:11.567Z,30.80
2022-12-03T07:06:40.312Z,34.90
2022-12-03T07:09:08.877Z,39.70
2022-12-03T07:11:40.726Z,31.80
2022-12-03T07:14:11.686Z,30.60
2022-12-03T07:16:40.308Z,35.50
2022-12-03T07:19:09.670Z,34.60
2022-12-03T07:21:38.169Z,29.40
2022-12-03T07:24:06.786Z,33.60
2022-12-03T07:26:37.254Z,34.00
2022-12-03T07:29:05.612Z,32.20
2022-12-03T07:31:33.721Z,33.60
2022-12-03T07:34:02.364Z,31.30
2022-12-03T07:36:30.686Z,29.50
2022-12-03T07:38:58.793Z,35.20
2022-12-03T07:41:26.961Z,35.50
2022-12-03T07:43:55.196Z,35.40
2022-12-03T07:46:23.368Z,38.60
2022-12-03T07:48:54.524Z,37.00
2022-12-03T07:52:36.036Z,34.30
2022-12-03T07:55:14.730Z,28.60
2022-12-03T07:58:13.621Z,32.80
2022-12-03T08:01:03.897Z,33.20
2022-12-03T08:11:27.598Z,43.30
2022-12-03T08:14:53.397Z,37.10
2022-12-03T08:17:43.288Z,31.60
2022-12-03T08:20:28.395Z,33.10
2022-12-03T08:23:11.972Z,35.70
2022-12-03T08:25:46.571Z,32.50
2022-12-03T08:28:21.827Z,33.60
2022-12-03T08:31:07.513Z,31.40
2022-12-03T08:33:37.168Z,31.80
2022-12-03T08:36:30.689Z,31.30
2022-12-03T08:39:20.427Z,28.30
2022-12-03T08:42:13.918Z,29.50
2022-12-03T08:44:42.651Z,32.60
2022-12-03T08:47:19.774Z,32.80
2022-12-03T08:49:54.368Z,35.10
2022-12-03T08:52:31.000Z,31.50
2022-12-03T08:55:02.951Z,34.90
2022-12-03T08:57:34.657Z,31.30
2022-12-03T09:00:12.798Z,36.10
2022-12-03T09:02:46.324Z,30.90
2022-12-03T09:05:22.729Z,34.00
2022-12-03T09:07:51.018Z,32.50
2022-12-03T09:10:19.187Z,32.90
2022-12-03T09:12:47.995Z,35.80
2022-12-03T09:15:16.256Z,30.10
2022-12-03T09:17:44.578Z,30.40
2022-12-03T09:20:13.183Z,36.60
2022-12-03T09:22:41.672Z,33.50
2022-12-03T09:25:09.966Z,33.90
2022-12-03T09:27:38.098Z,29.10
2022-12-03T09:30:08.645Z,30.70
2022-12-03T09:35:06.340Z,28.00
2022-12-03T09:37:34.813Z,30.80
2022-12-03T09:40:03.935Z,29.40
2022-12-03T09:42:32.061Z,25.00
2022-12-03T09:45:01.881Z,28.00
2022-12-03T09:47:31.570Z,27.30
2022-12-03T09:50:00.468Z,25.70
2022-12-03T09:52:34.039Z,25.00
2022-12-03T09:55:08.029Z,26.00
2022-12-03T09:57:36.791Z,29.90
2022-12-03T10:00:15.875Z,30.40
2022-12-03T10:02:44.089Z,25.00
2022-12-03T10:05:13.476Z,25.20
2022-12-03T10:07:42.904Z,29.50
2022-12-03T10:10:20.905Z,25.70
2022-12-03T10:12:51.075Z,28.00
2022-12-03T10:15:23.093Z,24.20
2022-12-03T10:17:55.106Z,24.20
2022-12-03T10:20:27.156Z,23.70
2022-12-03T10:22:55.211Z,24.60
2022-12-03T10:25:24.296Z,20.50
2022-12-03T10:28:01.417Z,25.60
2022-12-03T10:30:32.052Z,24.00
2022-12-03T10:33:18.995Z,27.30
2022-12-03T10:35:57.780Z,27.00
2022-12-03T10:39:21.664Z,22.60
2022-12-03T10:42:17.661Z,20.80
2022-12-03T10:45:16.818Z,24.70
2022-12-03T10:48:21.106Z,23.70
2022-12-03T10:50:53.289Z,23.40
2022-12-03T10:53:27.823Z,27.80
2022-12-03T10:56:00.732Z,27.00
2022-12-03T10:58:34.344Z,27.80
2022-12-03T11:01:14.903Z,22.30
2022-12-03T11:03:45.748Z,23.60
2022-12-03T11:06:23.206Z,23.00
2022-12-03T11:09:08.297Z,23.50
2022-12-03T11:11:41.501Z,24.70
2022-12-03T11:14:14.743Z,25.60
2022-12-03T11:16:48.338Z,23.70
2022-12-03T11:19:19.630Z,24.80
2022-12-03T11:22:06.612Z,28.40
2022-12-03T11:24:39.596Z,25.80
2022-12-03T11:27:09.286Z,27.90
2022-12-03T11:29:54.569Z,23.40
2022-12-03T11:32:38.544Z,26.40
2022-12-03T11:35:13.449Z,28.50
2022-12-03T11:37:43.827Z,27.60
2022-12-03T11:40:17.328Z,27.00
2022-12-03T11:42:47.585Z,28.00
2022-12-03T11:45:23.402Z,30.60
2022-12-03T11:48:16.179Z,25.70
2022-12-03T11:50:55.377Z,25.10
2022-12-03T11:53:27.350Z,23.50
2022-12-03T11:56:09.265Z,28.50
2022-12-03T11:58:42.638Z,27.20
2022-12-03T12:01:12.490Z,30.10
2022-12-03T12:03:48.426Z,23.90
2022-12-03T12:06:20.201Z,27.80
2022-12-03T12:08:50.023Z,27.80
2022-12-03T12:11:18.195Z,33.10
2022-12-03T12:13:55.512Z,29.90
2022-12-03T12:16:43.031Z,30.70
2022-12-03T12:19:32.800Z,33.40
2022-12-03T12:22:21.068Z,32.00
2022-12-03T12:25:32.684Z,35.40
2022-12-03T12:28:02.329Z,36.20
2022-12-03T12:30:31.026Z,31.40
2022-12-03T12:33:12.422Z,30.00
2022-12-03T12:35:41.067Z,30.90
2022-12-03T12:38:12.073Z,34.00
2022-12-03T12:40:43.020Z,24.10
2022-12-03T12:43:15.277Z,25.60
2022-12-03T12:45:46.044Z,32.50
2022-12-03T12:48:22.254Z,29.90
2022-12-03T12:50:58.932Z,28.20
2022-12-03T12:53:35.048Z,26.90
2022-12-03T12:56:26.633Z,31.20
2022-12-03T12:58:54.850Z,28.20
2022-12-03T13:01:27.298Z,27.80
2022-12-03T13:03:58.451Z,28.90
2022-12-03T13:06:32.318Z,29.90
2022-12-03T13:09:01.827Z,26.30
2022-12-03T13:11:35.631Z,28.10
2022-12-03T13:14:19.649Z,23.00
2022-12-03T13:16:49.786Z,22.30
2022-12-03T13:19:49.391Z,24.20
2022-12-03T13:22:23.108Z,24.00
2022-12-03T13:24:54.418Z,28.00
2022-12-03T13:27:31.964Z,26.60
2022-12-03T13:30:14.267Z,27.80
2022-12-03T13:32:44.159Z,28.30
2022-12-03T13:35:27.082Z,26.60
2022-12-03T13:37:55.787Z,27.40
2022-12-03T13:40:30.830Z,27.40
2022-12-03T13:42:59.507Z,32.90
2022-12-03T13:45:43.780Z,27.40
2022-12-03T13:48:21.366Z,27.60
2022-12-03T13:50:52.724Z,23.90
2022-12-03T13:53:26.617Z,28.40
2022-12-03T13:56:34.173Z,29.60
2022-12-03T13:59:04.538Z,30.20
2022-12-03T14:01:33.279Z,34.40
2022-12-03T14:04:01.688Z,32.70
2022-12-03T14:06:30.035Z,31.40
2022-12-03T14:08:58.989Z,35.10
2022-12-03T14:11:45.877Z,39.80
2022-12-03T14:14:14.602Z,32.00
2022-12-03T14:16:43.201Z,31.00
2022-12-03T14:19:11.251Z,35.20
2022-12-03T14:21:39.508Z,32.70
2022-12-03T14:24:07.791Z,41.90
2022-12-03T14:26:36.143Z,44.20
2022-12-03T14:29:08.752Z,55.80
2022-12-03T14:31:37.342Z,63.20
2022-12-03T14:34:05.834Z,55.10
2022-12-03T14:36:33.960Z,62.60
2022-12-03T14:39:02.891Z,48.70
2022-12-03T14:41:49.403Z,35.70
2022-12-03T14:44:18.805Z,36.40
2022-12-03T14:46:47.531Z,31.80
2022-12-03T14:49:16.044Z,34.30
2022-12-03T14:51:44.231Z,39.40
2022-12-03T14:54:13.910Z,39.60
2022-12-03T14:56:41.950Z,31.90
2022-12-03T14:59:10.857Z,38.80
2022-12-03T15:01:39.068Z,32.90
2022-12-03T15:04:08.012Z,38.70
2022-12-03T15:06:36.088Z,32.50
2022-12-03T15:09:04.937Z,40.50
2022-12-03T15:11:34.755Z,42.60
2022-12-03T15:14:05.381Z,44.40
2022-12-03T15:16:34.859Z,44.70
2022-12-03T15:19:04.925Z,45.10
2022-12-03T15:21:35.133Z,39.60
2022-12-03T15:24:03.756Z,35.10
2022-12-03T15:26:31.784Z,37.20
2022-12-03T15:29:00.380Z,44.70
2022-12-03T15:31:28.951Z,36.00
2022-12-03T15:33:57.622Z,41.90
2022-12-03T15:36:25.755Z,43.00
2022-12-03T15:38:53.887Z,47.90
2022-12-03T15:41:25.742Z,41.50
2022-12-03T15:43:53.977Z,45.30
2022-12-03T15:46:23.878Z,42.10
2022-12-03T15:48:52.906Z,36.50
2022-12-03T15:51:21.204Z,40.60
2022-12-03T15:53:49.881Z,39.90
2022-12-03T15:56:18.023Z,37.70
2022-12-03T15:58:46.245Z,49.00
2022-12-03T16:01:15.373Z,39.20
2022-12-03T16:03:43.653Z,43.20
2022-12-03T16:06:12.725Z,41.30
2022-12-03T16:08:40.765Z,38.90
2022-12-03T16:11:09.412Z,42.80
2022-12-03T16:13:37.479Z,39.90
2022-12-03T16:16:06.780Z,42.10
2022-12-03T16:18:35.220Z,43.80
2022-12-03T16:21:03.383Z,43.50
2022-12-03T16:23:31.456Z,36.80
2022-12-03T16:26:00.893Z,35.40
2022-12-03T16:28:29.428Z,40.20
2022-12-03T16:30:58.209Z,35.80
2022-12-03T16:33:27.971Z,38.20
2022-12-03T16:35:56.350Z,36.70
2022-12-03T16:38:25.343Z,32.00
2022-12-03T16:40:53.440Z,35.80
2022-12-03T16:43:21.626Z,28.70
2022-12-03T16:46:03.153Z,24.00
2022-12-03T16:48:31.738Z,29.60
2022-12-03T16:51:00.698Z,24.90
2022-12-03T16:53:28.664Z,27.40
2022-12-03T16:55:56.836Z,30.00
2022-12-03T16:58:25.345Z,29.60
2022-12-03T17:00:54.441Z,25.30
2022-12-03T17:03:22.972Z,30.50
2022-12-03T17:05:51.052Z,27.50
2022-12-03T17:08:19.334Z,23.90
2022-12-03T17:10:47.832Z,26.70
2022-12-03T17:13:16.087Z,30.00
2022-12-03T17:15:44.395Z,22.30
2022-12-03T17:18:12.630Z,24.30
2022-12-03T17:20:41.860Z,27.10
2022-12-03T17:23:11.975Z,30.90
2022-12-03T17:25:40.090Z,26.80
2022-12-03T17:28:08.247Z,19.70
2022-12-03T17:33:06.603Z,30.00
2022-12-03T17:35:34.897Z,21.70
2022-12-03T17:38:03.028Z,22.20
2022-12-03T17:40:31.535Z,25.00
2022-12-03T17:42:59.653Z,30.60
2022-12-03T17:45:28.681Z,33.20
2022-12-03T17:47:56.904Z,43.80
2022-12-03T17:50:26.255Z,45.00
2022-12-03T17:52:54.356Z,34.30
2022-12-03T17:55:31.954Z,37.70
2022-12-03T17:58:06.713Z,31.10
2022-12-03T18:00:34.880Z,41.50
2022-12-03T18:03:03.213Z,31.10
2022-12-03T18:05:31.233Z,27.40
2022-12-03T18:08:00.193Z,33.10
2022-12-03T18:10:28.880Z,32.70
2022-12-03T18:13:01.687Z,29.00
2022-12-03T18:15:32.297Z,41.30
2022-12-03T18:18:07.703Z,40.30
2022-12-03T18:20:37.817Z,29.20
2022-12-03T18:23:06.046Z,32.80
2022-12-03T18:25:34.267Z,26.90
2022-12-03T18:28:03.135Z,26.50
2022-12-03T18:30:31.791Z,31.40
2022-12-03T18:33:00.570Z,30.70
2022-12-03T18:35:28.835Z,31.20
2022-12-03T18:37:56.963Z,30.80
2022-12-03T18:40:27.430Z,32.40
2022-12-03T18:42:57.592Z,27.70
2022-12-03T18:45:28.426Z,23.10
2022-12-03T18:47:57.352Z,23.60
2022-12-03T18:50:25.352Z,29.10
2022-12-03T18:52:53.556Z,29.40
2022-12-03T18:55:22.016Z,23.00
2022-12-03T18:57:50.529Z,28.80
2022-12-03T19:00:18.816Z,28.80
2022-12-03T19:03:03.020Z,25.70
2022-12-03T19:05:34.197Z,24.60
2022-12-03T19:08:04.004Z,28.00
2022-12-03T19:10:32.144Z,27.50
2022-12-03T19:13:01.021Z,22.90
2022-12-03T19:15:30.774Z,25.50
2022-12-03T19:17:58.804Z,24.70
2022-12-03T19:20:26.936Z,24.30
2022-12-03T19:22:55.127Z,25.50
2022-12-03T19:25:23.292Z,26.70
2022-12-03T19:27:55.175Z,34.70
2022-12-03T19:30:24.276Z,32.20
2022-12-03T19:32:52.435Z,32.60
2022-12-03T19:35:22.688Z,33.40
2022-12-03T19:37:52.002Z,37.70
2022-12-03T19:40:20.088Z,39.50
2022-12-03T19:42:48.200Z,29.30
2022-12-03T19:45:16.424Z,28.50
2022-12-03T19:47:45.781Z,28.40
2022-12-03T19:50:22.682Z,22.90
2022-12-03T19:52:51.346Z,23.20
2022-12-03T19:55:22.312Z,27.50
2022-12-03T19:57:50.491Z,26.00
2022-12-03T20:00:18.875Z,35.80
2022-12-03T20:02:50.021Z,27.10
2022-12-03T20:05:19.681Z,32.90
2022-12-03T20:07:47.903Z,31.60
2022-12-03T20:10:16.184Z,22.00
2022-12-03T20:12:44.867Z,28.70
2022-12-03T20:15:13.659Z,23.70
2022-12-03T20:17:43.617Z,30.90
2022-12-03T20:20:12.004Z,23.40
2022-12-03T20:22:40.137Z,27.50
2022-12-03T20:25:10.186Z,24.90
2022-12-03T20:27:38.376Z,25.10
2022-12-03T20:30:07.766Z,26.70
2022-12-03T20:32:39.402Z,27.30
2022-12-03T20:35:12.359Z,39.30
2022-12-03T20:37:40.701Z,40.50
2022-12-03T20:40:09.649Z,30.40
2022-12-03T20:42:37.937Z,28.80
2022-12-03T20:45:07.412Z,28.40
2022-12-03T20:47:35.660Z,27.60
2022-12-03T20:50:03.945Z,23.90
2022-12-03T20:52:32.118Z,27.70
2022-12-03T20:55:00.392Z,29.70
2022-12-03T20:57:29.590Z,26.70
2022-12-03T20:59:57.906Z,25.10
2022-12-03T21:02:27.222Z,32.70
2022-12-03T21:04:56.008Z,28.50
2022-12-03T21:07:24.089Z,29.60
2022-12-03T21:09:52.503Z,22.50
2022-12-03T21:12:20.817Z,31.60
2022-12-03T21:14:48.954Z,25.90
2022-12-03T21:17:17.206Z,21.50
2022-12-03T21:19:46.309Z,27.40
2022-12-03T21:22:15.163Z,25.10
2022-12-03T21:24:43.906Z,26.80
2022-12-03T21:27:14.574Z,28.00
2022-12-03T21:29:46.691Z,27.80
2022-12-03T21:32:14.757Z,25.00
2022-12-03T21:34:44.753Z,25.40
2022-12-03T21:37:13.660Z,28.90
2022-12-03T21:39:42.142Z,24.70
2022-12-03T21:42:35.009Z,26.80
2022-12-03T21:44:58.871Z,29.70
2022-12-03T21:47:28.922Z,22.50
2022-12-03T21:49:59.025Z,28.90
2022-12-03T21:52:28.072Z,25.90
2022-12-03T21:54:56.185Z,27.60
2022-12-03T21:57:25.020Z,29.70
2022-12-03T21:59:53.709Z,23.70
2022-12-03T22:02:22.464Z,29.20
2022-12-03T22:04:51.419Z,20.30
2022-12-03T22:07:19.698Z,24.40
2022-12-03T22:09:47.805Z,28.40
2022-12-03T22:12:15.912Z,24.70
2022-12-03T22:14:44.069Z,24.80
2022-12-03T22:17:12.193Z,21.40
2022-12-03T22:19:40.476Z,16.40
2022-12-03T22:22:08.639Z,19.40
2022-12-03T22:24:36.805Z,19.70
2022-12-03T22:27:05.095Z,19.30
2022-12-03T22:29:33.214Z,19.40
2022-12-03T22:32:01.420Z,17.60
2022-12-03T22:34:29.526Z,17.40
2022-12-03T22:36:57.591Z,14.40
2022-12-03T22:39:25.649Z,17.30
2022-12-03T22:41:54.047Z,17.10
2022-12-03T22:44:22.165Z,17.50
2022-12-03T22:46:50.320Z,15.70
2022-12-03T22:49:18.619Z,18.70
2022-12-03T22:51:47.549Z,14.90
2022-12-03T22:54:18.277Z,17.70
2022-12-03T22:56:50.498Z,18.30
2022-12-03T22:59:18.584Z,16.60
2022-12-03T23:01:47.821Z,16.60
2022-12-03T23:04:16.311Z,16.60
2022-12-03T23:06:44.475Z,15.20
2022-12-03T23:09:12.786Z,17.50
2022-12-03T23:11:44.854Z,15.20
2022-12-03T23:14:13.232Z,18.00
2022-12-03T23:16:41.330Z,20.10
2022-12-03T23:19:09.359Z,17.60
2022-12-03T23:21:37.731Z,17.00
2022-12-03T23:24:06.595Z,18.00
2022-12-03T23:26:37.692Z,14.80
2022-12-03T23:29:06.563Z,17.30
2022-12-03T23:31:34.870Z,19.00
2022-12-03T23:34:04.135Z,18.20
2022-12-03T23:36:33.770Z,16.20
2022-12-03T23:39:02.142Z,21.20
2022-12-03T23:41:30.281Z,15.40
2022-12-03T23:43:58.786Z,17.20
2022-12-03T23:46:28.177Z,15.00
2022-12-03T23:48:58.859Z,15.70
2022-12-03T23:51:27.736Z,20.20
2022-12-03T23:53:57.024Z,16.80
2022-12-03T23:56:29.197Z,18.10
2022-12-03T23:58:59.023Z,16.00
